sensor_id;sensor_type;location;lat;lon;timestamp;pressure;altitude;pressure_sealevel;temperature;humidity
9421;BME280;4749;51.398;5.466;2023-08-21T00:00:56;102070.94;;;22.39;100.00
9421;BME280;4749;51.398;5.466;2023-08-21T00:03:23;102068.31;;;22.37;100.00
9421;BME280;4749;51.398;5.466;2023-08-21T00:05:50;102064.78;;;22.35;100.00
9421;BME280;4749;51.398;5.466;2023-08-21T00:08:18;102069.34;;;22.32;100.00
9421;BME280;4749;51.398;5.466;2023-08-21T00:10:45;102071.25;;;22.28;100.00
9421;BME280;4749;51.398;5.466;2023-08-21T00:13:12;102075.78;;;22.25;100.00
9421;BME280;4749;51.398;5.466;2023-08-21T00:15:39;102070.56;;;22.20;100.00
9421;BME280;4749;51.398;5.466;2023-08-21T00:18:06;102074.19;;;22.17;100.00
9421;BME280;4749;51.398;5.466;2023-08-21T00:20:34;102075.16;;;22.15;100.00
9421;BME280;4749;51.398;5.466;2023-08-21T00:23:01;102074.28;;;22.14;100.00
9421;BME280;4749;51.398;5.466;2023-08-21T00:25:28;102077.03;;;22.11;100.00
9421;BME280;4749;51.398;5.466;2023-08-21T00:27:55;102066.41;;;22.07;100.00
9421;BME280;4749;51.398;5.466;2023-08-21T00:30:22;102065.63;;;22.02;100.00
9421;BME280;4749;51.398;5.466;2023-08-21T00:32:49;102062.16;;;21.98;100.00
9421;BME280;4749;51.398;5.466;2023-08-21T00:35:16;102067.63;;;21.93;100.00
9421;BME280;4749;51.398;5.466;2023-08-21T00:37:43;102068.53;;;21.92;100.00
9421;BME280;4749;51.398;5.466;2023-08-21T00:40:11;102062.34;;;21.90;100.00
9421;BME280;4749;51.398;5.466;2023-08-21T00:42:38;102060.50;;;21.92;100.00
9421;BME280;4749;51.398;5.466;2023-08-21T00:45:06;102056.13;;;21.90;100.00
9421;BME280;4749;51.398;5.466;2023-08-21T00:47:36;102071.25;;;21.91;100.00
9421;BME280;4749;51.398;5.466;2023-08-21T00:50:05;102069.47;;;21.91;100.00
9421;BME280;4749;51.398;5.466;2023-08-21T00:52:38;102062.34;;;21.90;100.00
9421;BME280;4749;51.398;5.466;2023-08-21T00:55:07;102067.66;;;21.92;100.00
9421;BME280;4749;51.398;5.466;2023-08-21T00:57:36;102071.22;;;21.92;100.00
9421;BME280;4749;51.398;5.466;2023-08-21T01:00:07;102062.25;;;21.93;100.00
9421;BME280;4749;51.398;5.466;2023-08-21T01:02:37;102072.97;;;21.95;100.00
9421;BME280;4749;51.398;5.466;2023-08-21T01:05:07;102080.13;;;21.95;100.00
9421;BME280;4749;51.398;5.466;2023-08-21T01:07:48;102082.81;;;21.93;100.00
9421;BME280;4749;51.398;5.466;2023-08-21T01:10:26;102071.31;;;21.89;100.00
9421;BME280;4749;51.398;5.466;2023-08-21T01:16:13;102070.75;;;21.75;100.00
9421;BME280;4749;51.398;5.466;2023-08-21T01:18:43;102070.91;;;21.69;100.00
9421;BME280;4749;51.398;5.466;2023-08-21T01:21:12;102061.28;;;21.62;100.00
9421;BME280;4749;51.398;5.466;2023-08-21T01:23:41;102059.66;;;21.55;100.00
9421;BME280;4749;51.398;5.466;2023-08-21T01:26:11;102056.28;;;21.47;100.00
9421;BME280;4749;51.398;5.466;2023-08-21T01:28:38;102051.06;;;21.41;100.00
9421;BME280;4749;51.398;5.466;2023-08-21T01:31:14;102049.41;;;21.35;100.00
9421;BME280;4749;51.398;5.466;2023-08-21T01:33:47;102046.91;;;21.29;100.00
9421;BME280;4749;51.398;5.466;2023-08-21T01:36:15;102042.47;;;21.25;100.00
9421;BME280;4749;51.398;5.466;2023-08-21T01:38:44;102034.59;;;21.19;100.00
9421;BME280;4749;51.398;5.466;2023-08-21T01:41:11;102031.13;;;21.15;100.00
9421;BME280;4749;51.398;5.466;2023-08-21T01:43:38;102033.00;;;21.12;100.00
9421;BME280;4749;51.398;5.466;2023-08-21T01:46:06;102042.88;;;21.08;100.00
9421;BME280;4749;51.398;5.466;2023-08-21T01:48:33;102042.06;;;21.04;100.00
9421;BME280;4749;51.398;5.466;2023-08-21T01:51:02;102045.69;;;21.00;100.00
9421;BME280;4749;51.398;5.466;2023-08-21T01:53:29;102048.44;;;20.97;100.00
9421;BME280;4749;51.398;5.466;2023-08-21T01:55:56;102039.63;;;20.94;100.00
9421;BME280;4749;51.398;5.466;2023-08-21T01:58:23;102040.59;;;20.90;100.00
9421;BME280;4749;51.398;5.466;2023-08-21T02:00:50;102045.09;;;20.88;100.00
9421;BME280;4749;51.398;5.466;2023-08-21T02:03:18;102041.59;;;20.84;100.00
9421;BME280;4749;51.398;5.466;2023-08-21T02:05:45;102055.91;;;20.82;100.00
9421;BME280;4749;51.398;5.466;2023-08-21T02:08:13;102062.22;;;20.79;100.00
9421;BME280;4749;51.398;5.466;2023-08-21T02:10:51;102064.03;;;20.77;100.00
9421;BME280;4749;51.398;5.466;2023-08-21T02:13:19;102059.63;;;20.74;100.00
9421;BME280;4749;51.398;5.466;2023-08-21T02:15:46;102065.03;;;20.71;100.00
9421;BME280;4749;51.398;5.466;2023-08-21T02:18:14;102062.44;;;20.68;100.00
9421;BME280;4749;51.398;5.466;2023-08-21T02:20:41;102064.22;;;20.66;100.00
9421;BME280;4749;51.398;5.466;2023-08-21T02:23:08;102062.50;;;20.64;100.00
9421;BME280;4749;51.398;5.466;2023-08-21T02:25:35;102065.25;;;20.61;100.00
9421;BME280;4749;51.398;5.466;2023-08-21T02:28:03;102065.28;;;20.58;100.00
9421;BME280;4749;51.398;5.466;2023-08-21T02:30:31;102064.50;;;20.54;100.00
9421;BME280;4749;51.398;5.466;2023-08-21T02:32:58;102056.53;;;20.49;100.00
9421;BME280;4749;51.398;5.466;2023-08-21T02:35:25;102058.44;;;20.44;100.00
9421;BME280;4749;51.398;5.466;2023-08-21T02:37:53;102059.41;;;20.39;100.00
9421;BME280;4749;51.398;5.466;2023-08-21T02:40:20;102064.81;;;20.36;100.00
9421;BME280;4749;51.398;5.466;2023-08-21T02:42:47;102056.84;;;20.33;100.00
9421;BME280;4749;51.398;5.466;2023-08-21T02:45:14;102063.09;;;20.32;100.00
9421;BME280;4749;51.398;5.466;2023-08-21T02:47:42;102059.56;;;20.30;100.00
9421;BME280;4749;51.398;5.466;2023-08-21T02:50:10;102056.06;;;20.26;100.00
9421;BME280;4749;51.398;5.466;2023-08-21T02:52:38;102057.91;;;20.22;100.00
9421;BME280;4749;51.398;5.466;2023-08-21T02:55:06;102049.97;;;20.19;100.00
9421;BME280;4749;51.398;5.466;2023-08-21T02:57:33;102050.91;;;20.15;100.00
9421;BME280;4749;51.398;5.466;2023-08-21T03:00:01;102049.19;;;20.13;100.00
9421;BME280;4749;51.398;5.466;2023-08-21T03:02:28;102056.38;;;20.09;100.00
9421;BME280;4749;51.398;5.466;2023-08-21T03:04:55;102057.34;;;20.05;100.00
9421;BME280;4749;51.398;5.466;2023-08-21T03:07:22;102058.31;;;20.01;100.00
9421;BME280;4749;51.398;5.466;2023-08-21T03:09:50;102054.88;;;19.94;100.00
9421;BME280;4749;51.398;5.466;2023-08-21T03:12:17;102053.16;;;19.89;100.00
9421;BME280;4749;51.398;5.466;2023-08-21T03:14:46;102055.00;;;19.87;100.00
9421;BME280;4749;51.398;5.466;2023-08-21T03:17:13;102059.47;;;19.83;100.00
9421;BME280;4749;51.398;5.466;2023-08-21T03:19:40;102053.31;;;19.80;100.00
9421;BME280;4749;51.398;5.466;2023-08-21T03:22:07;102056.94;;;19.76;100.00
9421;BME280;4749;51.398;5.466;2023-08-21T03:24:34;102062.38;;;19.71;100.00
9421;BME280;4749;51.398;5.466;2023-08-21T03:27:02;102061.53;;;19.66;100.00
9421;BME280;4749;51.398;5.466;2023-08-21T03:29:29;102059.88;;;19.60;100.00
9421;BME280;4749;51.398;5.466;2023-08-21T03:31:58;102062.56;;;19.56;100.00
9421;BME280;4749;51.398;5.466;2023-08-21T03:34:25;102061.75;;;19.52;100.00
9421;BME280;4749;51.398;5.466;2023-08-21T03:36:52;102059.13;;;19.48;100.00
9421;BME280;4749;51.398;5.466;2023-08-21T03:39:22;102062.72;;;19.45;100.00
9421;BME280;4749;51.398;5.466;2023-08-21T03:41:49;102065.47;;;19.39;100.00
9421;BME280;4749;51.398;5.466;2023-08-21T03:44:17;102061.09;;;19.36;100.00
9421;BME280;4749;51.398;5.466;2023-08-21T03:46:44;102066.47;;;19.32;100.00
9421;BME280;4749;51.398;5.466;2023-08-21T03:49:11;102061.19;;;19.29;100.00
9421;BME280;4749;51.398;5.466;2023-08-21T03:51:38;102066.59;;;19.26;100.00
9421;BME280;4749;51.398;5.466;2023-08-21T03:54:05;102063.03;;;19.24;100.00
9421;BME280;4749;51.398;5.466;2023-08-21T03:56:32;102067.53;;;19.20;100.00
9421;BME280;4749;51.398;5.466;2023-08-21T03:58:59;102059.53;;;19.20;100.00
9421;BME280;4749;51.398;5.466;2023-08-21T04:01:26;102056.00;;;19.20;100.00
9421;BME280;4749;51.398;5.466;2023-08-21T04:03:53;102061.34;;;19.18;100.00
9421;BME280;4749;51.398;5.466;2023-08-21T04:06:21;102056.91;;;19.16;100.00
9421;BME280;4749;51.398;5.466;2023-08-21T04:08:48;102057.84;;;19.13;100.00
9421;BME280;4749;51.398;5.466;2023-08-21T04:11:15;102063.19;;;19.13;100.00
9421;BME280;4749;51.398;5.466;2023-08-21T04:13:43;102066.75;;;19.12;100.00
9421;BME280;4749;51.398;5.466;2023-08-21T04:16:10;102068.50;;;19.13;100.00
9421;BME280;4749;51.398;5.466;2023-08-21T04:18:39;102079.16;;;19.15;100.00
9421;BME280;4749;51.398;5.466;2023-08-21T04:21:08;102086.25;;;19.16;100.00
9421;BME280;4749;51.398;5.466;2023-08-21T04:23:36;102085.34;;;19.18;100.00
9421;BME280;4749;51.398;5.466;2023-08-21T04:26:04;102087.06;;;19.21;100.00
9421;BME280;4749;51.398;5.466;2023-08-21T04:28:33;102090.59;;;19.23;100.00
9421;BME280;4749;51.398;5.466;2023-08-21T04:31:00;102092.31;;;19.25;100.00
9421;BME280;4749;51.398;5.466;2023-08-21T04:33:28;102097.63;;;19.28;100.00
9421;BME280;4749;51.398;5.466;2023-08-21T04:35:56;102095.78;;;19.33;100.00
9421;BME280;4749;51.398;5.466;2023-08-21T04:38:23;102094.84;;;19.37;100.00
9421;BME280;4749;51.398;5.466;2023-08-21T04:40:51;102100.09;;;19.42;100.00
9421;BME280;4749;51.398;5.466;2023-08-21T04:43:18;102100.94;;;19.47;100.00
9421;BME280;4749;51.398;5.466;2023-08-21T04:45:50;102092.88;;;19.52;100.00
9421;BME280;4749;51.398;5.466;2023-08-21T04:48:18;102094.56;;;19.57;100.00
9421;BME280;4749;51.398;5.466;2023-08-21T04:50:46;102082.97;;;19.61;100.00
9421;BME280;4749;51.398;5.466;2023-08-21T04:53:13;102089.16;;;19.63;100.00
9421;BME280;4749;51.398;5.466;2023-08-21T04:55:41;102096.31;;;19.61;100.00
9421;BME280;4749;51.398;5.466;2023-08-21T04:58:09;102097.22;;;19.60;100.00
9421;BME280;4749;51.398;5.466;2023-08-21T05:00:36;102102.56;;;19.59;100.00
9421;BME280;4749;51.398;5.466;2023-08-21T05:03:06;102102.56;;;19.60;100.00
9421;BME280;4749;51.398;5.466;2023-08-21T05:05:36;102112.28;;;19.63;100.00
9421;BME280;4749;51.398;5.466;2023-08-21T05:08:03;102116.69;;;19.65;100.00
9421;BME280;4749;51.398;5.466;2023-08-21T05:10:31;102112.25;;;19.67;100.00
9421;BME280;4749;51.398;5.466;2023-08-21T05:12:58;102101.47;;;19.72;100.00
9421;BME280;4749;51.398;5.466;2023-08-21T05:15:25;102106.72;;;19.78;100.00
9421;BME280;4749;51.398;5.466;2023-08-21T05:17:52;102098.63;;;19.84;100.00
9421;BME280;4749;51.398;5.466;2023-08-21T05:20:20;102099.38;;;19.91;100.00
9421;BME280;4749;51.398;5.466;2023-08-21T05:22:47;102102.00;;;19.95;100.00
9421;BME280;4749;51.398;5.466;2023-08-21T05:25:15;102100.22;;;19.96;100.00
9421;BME280;4749;51.398;5.466;2023-08-21T05:27:42;102101.97;;;19.97;100.00
9421;BME280;4749;51.398;5.466;2023-08-21T05:30:10;102107.28;;;19.99;100.00
9421;BME280;4749;51.398;5.466;2023-08-21T05:32:40;102112.59;;;20.00;100.00
9421;BME280;4749;51.398;5.466;2023-08-21T05:35:08;102114.28;;;20.06;100.00
9421;BME280;4749;51.398;5.466;2023-08-21T05:37:35;102106.22;;;20.10;100.00
9421;BME280;4749;51.398;5.466;2023-08-21T05:40:03;102114.13;;;20.15;100.00
9421;BME280;4749;51.398;5.466;2023-08-21T05:42:32;102124.69;;;20.22;100.00
9421;BME280;4749;51.398;5.466;2023-08-21T05:45:00;102120.16;;;20.28;100.00
9421;BME280;4749;51.398;5.466;2023-08-21T05:47:27;102128.88;;;20.37;100.00
9421;BME280;4749;51.398;5.466;2023-08-21T05:49:54;102130.56;;;20.44;100.00
9421;BME280;4749;51.398;5.466;2023-08-21T05:52:21;102130.44;;;20.50;100.00
9421;BME280;4749;51.398;5.466;2023-08-21T05:54:49;102132.13;;;20.56;100.00
9421;BME280;4749;51.398;5.466;2023-08-21T05:57:16;102135.56;;;20.63;100.00
9421;BME280;4749;51.398;5.466;2023-08-21T05:59:45;102128.28;;;20.71;100.00
9421;BME280;4749;51.398;5.466;2023-08-21T06:02:13;102137.91;;;20.79;100.00
9421;BME280;4749;51.398;5.466;2023-08-21T06:04:42;102136.91;;;20.87;100.00
9421;BME280;4749;51.398;5.466;2023-08-21T06:07:09;102135.88;;;20.92;100.00
9421;BME280;4749;51.398;5.466;2023-08-21T06:09:37;102138.47;;;20.97;100.00
9421;BME280;4749;51.398;5.466;2023-08-21T06:12:08;102143.66;;;21.04;100.00
9421;BME280;4749;51.398;5.466;2023-08-21T06:14:35;102146.06;;;21.17;100.00
9421;BME280;4749;51.398;5.466;2023-08-21T06:17:04;102150.19;;;21.34;100.00
9421;BME280;4749;51.398;5.466;2023-08-21T06:19:32;102150.78;;;21.49;100.00
9421;BME280;4749;51.398;5.466;2023-08-21T06:21:59;102154.06;;;21.61;100.00
9421;BME280;4749;51.398;5.466;2023-08-21T06:24:26;102151.13;;;21.72;100.00
9421;BME280;4749;51.398;5.466;2023-08-21T06:26:54;102150.13;;;21.78;100.00
9421;BME280;4749;51.398;5.466;2023-08-21T06:29:21;102149.03;;;21.85;100.00
9421;BME280;4749;51.398;5.466;2023-08-21T06:31:48;102147.19;;;21.88;100.00
9421;BME280;4749;51.398;5.466;2023-08-21T06:34:15;102148.88;;;21.92;100.00
9421;BME280;4749;51.398;5.466;2023-08-21T06:36:42;102153.28;;;21.93;100.00
9421;BME280;4749;51.398;5.466;2023-08-21T06:39:09;102150.63;;;21.93;100.00
9421;BME280;4749;51.398;5.466;2023-08-21T06:41:36;102153.28;;;21.93;100.00
9421;BME280;4749;51.398;5.466;2023-08-21T06:44:04;102146.84;;;22.02;100.00
9421;BME280;4749;51.398;5.466;2023-08-21T06:46:31;102154.72;;;22.10;100.00
9421;BME280;4749;51.398;5.466;2023-08-21T06:48:58;102154.66;;;22.13;100.00
9421;BME280;4749;51.398;5.466;2023-08-21T06:51:26;102150.06;;;22.18;100.00
9421;BME280;4749;51.398;5.466;2023-08-21T06:53:53;102152.47;;;22.29;100.00
9421;BME280;4749;51.398;5.466;2023-08-21T06:56:20;102155.72;;;22.41;100.00
9421;BME280;4749;51.398;5.466;2023-08-21T06:58:47;102158.44;;;22.40;100.00
9421;BME280;4749;51.398;5.466;2023-08-21T07:03:41;102156.88;;;22.65;100.00
9421;BME280;4749;51.398;5.466;2023-08-21T07:06:08;102156.88;;;22.65;100.00
9421;BME280;4749;51.398;5.466;2023-08-21T07:08:36;102165.53;;;22.75;100.00
9421;BME280;4749;51.398;5.466;2023-08-21T07:11:04;102154.66;;;22.81;100.00
9421;BME280;4749;51.398;5.466;2023-08-21T07:13:31;102156.34;;;22.84;100.00
9421;BME280;4749;51.398;5.466;2023-08-21T07:15:59;102163.31;;;22.92;100.00
9421;BME280;4749;51.398;5.466;2023-08-21T07:18:34;102170.22;;;23.01;100.00
9421;BME280;4749;51.398;5.466;2023-08-21T07:21:02;102167.22;;;23.12;100.00
9421;BME280;4749;51.398;5.466;2023-08-21T07:23:41;102176.63;;;23.26;100.00
9421;BME280;4749;51.398;5.466;2023-08-21T07:26:08;102171.63;;;23.44;100.00
9421;BME280;4749;51.398;5.466;2023-08-21T07:28:35;102176.34;;;23.67;100.00
9421;BME280;4749;51.398;5.466;2023-08-21T07:31:02;102172.06;;;23.89;100.00
9421;BME280;4749;51.398;5.466;2023-08-21T07:33:29;102172.47;;;24.05;100.00
9421;BME280;4749;51.398;5.466;2023-08-21T07:36:01;102168.53;;;24.15;100.00
9421;BME280;4749;51.398;5.466;2023-08-21T07:38:29;102163.84;;;24.22;100.00
9421;BME280;4749;51.398;5.466;2023-08-21T07:41:09;102160.88;;;24.29;100.00
9421;BME280;4749;51.398;5.466;2023-08-21T07:43:41;102151.69;;;24.36;100.00
9421;BME280;4749;51.398;5.466;2023-08-21T07:46:11;102155.13;;;24.41;100.00
9421;BME280;4749;51.398;5.466;2023-08-21T07:48:45;102160.31;;;24.46;100.00
9421;BME280;4749;51.398;5.466;2023-08-21T07:51:13;102159.38;;;24.49;100.00
9421;BME280;4749;51.398;5.466;2023-08-21T07:53:41;102165.56;;;24.51;100.00
9421;BME280;4749;51.398;5.466;2023-08-21T07:56:08;102167.31;;;24.52;100.00
9421;BME280;4749;51.398;5.466;2023-08-21T07:58:35;102166.22;;;24.57;100.00
9421;BME280;4749;51.398;5.466;2023-08-21T08:01:02;102172.31;;;24.62;100.00
9421;BME280;4749;51.398;5.466;2023-08-21T08:03:32;102173.91;;;24.68;100.00
9421;BME280;4749;51.398;5.466;2023-08-21T08:05:59;102170.13;;;24.74;100.00
9421;BME280;4749;51.398;5.466;2023-08-21T08:08:26;102177.97;;;24.80;100.00
9421;BME280;4749;51.398;5.466;2023-08-21T08:11:00;102178.56;;;24.88;100.00
9421;BME280;4749;51.398;5.466;2023-08-21T08:13:28;102179.16;;;24.96;100.00
9421;BME280;4749;51.398;5.466;2023-08-21T08:15:56;102179.00;;;25.01;100.00
9421;BME280;4749;51.398;5.466;2023-08-21T08:18:23;102183.53;;;25.00;100.00
9421;BME280;4749;51.398;5.466;2023-08-21T08:20:50;102186.06;;;25.05;100.00
9421;BME280;4749;51.398;5.466;2023-08-21T08:23:19;102180.47;;;25.11;100.00
9421;BME280;4749;51.398;5.466;2023-08-21T08:25:47;102193.47;;;25.23;100.00
9421;BME280;4749;51.398;5.466;2023-08-21T08:28:14;102187.78;;;25.31;100.00
9421;BME280;4749;51.398;5.466;2023-08-21T08:30:42;102191.31;;;25.33;100.00
9421;BME280;4749;51.398;5.466;2023-08-21T08:33:09;102195.06;;;25.52;100.00
9421;BME280;4749;51.398;5.466;2023-08-21T08:35:36;102198.47;;;25.57;100.00
9421;BME280;4749;51.398;5.466;2023-08-21T08:38:03;102191.94;;;25.63;100.00
9421;BME280;4749;51.398;5.466;2023-08-21T08:40:31;102187.63;;;25.82;100.00
9421;BME280;4749;51.398;5.466;2023-08-21T08:43:00;102192.63;;;25.91;100.00
9421;BME280;4749;51.398;5.466;2023-08-21T08:45:30;102189.38;;;26.05;100.00
9421;BME280;4749;51.398;5.466;2023-08-21T08:48:00;102187.84;;;25.98;100.00
9421;BME280;4749;51.398;5.466;2023-08-21T08:50:34;102199.84;;;26.13;100.00
9421;BME280;4749;51.398;5.466;2023-08-21T08:53:01;102189.84;;;26.15;100.00
9421;BME280;4749;51.398;5.466;2023-08-21T08:55:42;102186.69;;;26.27;100.00
9421;BME280;4749;51.398;5.466;2023-08-21T08:58:09;102197.13;;;26.34;100.00
9421;BME280;4749;51.398;5.466;2023-08-21T09:00:37;102198.59;;;26.63;100.00
9421;BME280;4749;51.398;5.466;2023-08-21T09:03:04;102200.47;;;27.04;100.00
9421;BME280;4749;51.398;5.466;2023-08-21T09:05:33;102200.03;;;27.33;100.00
9421;BME280;4749;51.398;5.466;2023-08-21T09:08:11;102210.44;;;27.41;100.00
9421;BME280;4749;51.398;5.466;2023-08-21T09:10:40;102203.66;;;27.71;100.00
9421;BME280;4749;51.398;5.466;2023-08-21T09:13:18;102205.59;;;27.87;100.00
9421;BME280;4749;51.398;5.466;2023-08-21T09:15:48;102193.81;;;28.07;100.00
9421;BME280;4749;51.398;5.466;2023-08-21T09:18:20;102197.72;;;28.01;100.00
9421;BME280;4749;51.398;5.466;2023-08-21T09:20:47;102202.59;;;28.12;100.00
9421;BME280;4749;51.398;5.466;2023-08-21T09:23:17;102198.84;;;28.14;100.00
9421;BME280;4749;51.398;5.466;2023-08-21T09:25:47;102188.47;;;28.05;100.00
9421;BME280;4749;51.398;5.466;2023-08-21T09:28:20;102190.69;;;27.97;100.00
9421;BME280;4749;51.398;5.466;2023-08-21T09:30:52;102188.22;;;27.73;100.00
9421;BME280;4749;51.398;5.466;2023-08-21T09:33:22;102188.72;;;27.63;100.00
9421;BME280;4749;51.398;5.466;2023-08-21T09:35:54;102189.31;;;27.51;100.00
9421;BME280;4749;51.398;5.466;2023-08-21T09:38:22;102187.69;;;27.46;100.00
9421;BME280;4749;51.398;5.466;2023-08-21T09:40:54;102168.34;;;27.37;100.00
9421;BME280;4749;51.398;5.466;2023-08-21T09:43:23;102174.69;;;27.36;100.00
9421;BME280;4749;51.398;5.466;2023-08-21T09:45:54;102184.34;;;27.41;100.00
9421;BME280;4749;51.398;5.466;2023-08-21T09:48:27;102185.06;;;27.45;100.00
9421;BME280;4749;51.398;5.466;2023-08-21T09:50:54;102178.78;;;27.44;100.00
9421;BME280;4749;51.398;5.466;2023-08-21T09:53:23;102178.78;;;27.44;100.00
9421;BME280;4749;51.398;5.466;2023-08-21T09:55:54;102178.78;;;27.44;100.00
9421;BME280;4749;51.398;5.466;2023-08-21T09:58:22;102178.72;;;27.46;100.00
9421;BME280;4749;51.398;5.466;2023-08-21T10:00:50;102171.34;;;27.49;100.00
9421;BME280;4749;51.398;5.466;2023-08-21T10:03:21;102174.84;;;27.52;100.00
9421;BME280;4749;51.398;5.466;2023-08-21T10:05:48;102173.03;;;27.52;100.00
9421;BME280;4749;51.398;5.466;2023-08-21T10:08:24;102165.72;;;27.54;100.00
9421;BME280;4749;51.398;5.466;2023-08-21T10:10:52;102174.69;;;27.55;100.00
9421;BME280;4749;51.398;5.466;2023-08-21T10:13:20;102170.97;;;27.57;100.00
9421;BME280;4749;51.398;5.466;2023-08-21T10:15:48;102164.66;;;27.58;100.00
9421;BME280;4749;51.398;5.466;2023-08-21T10:18:29;102162.66;;;27.62;100.00
9421;BME280;4749;51.398;5.466;2023-08-21T10:21:16;102167.09;;;27.63;100.00
9421;BME280;4749;51.398;5.466;2023-08-21T10:23:54;102160.91;;;27.61;100.00
9421;BME280;4749;51.398;5.466;2023-08-21T10:26:22;102152.81;;;27.61;100.00
9421;BME280;4749;51.398;5.466;2023-08-21T10:28:55;102161.69;;;27.63;100.00
9421;BME280;4749;51.398;5.466;2023-08-21T10:31:27;102171.47;;;27.65;99.16
9421;BME280;4749;51.398;5.466;2023-08-21T10:33:55;102171.47;;;27.65;95.48
9421;BME280;4749;51.398;5.466;2023-08-21T10:39:25;102161.53;;;27.66;93.96
9421;BME280;4749;51.398;5.466;2023-08-21T10:42:04;102165.97;;;27.68;94.23
9421;BME280;4749;51.398;5.466;2023-08-21T10:44:53;102161.22;;;27.73;92.81
9421;BME280;4749;51.398;5.466;2023-08-21T10:49:59;102154.25;;;27.87;94.50
9421;BME280;4749;51.398;5.466;2023-08-21T10:52:29;102159.13;;;27.97;95.01
9421;BME280;4749;51.398;5.466;2023-08-21T10:54:59;102162.19;;;28.09;94.51
9421;BME280;4749;51.398;5.466;2023-08-21T10:57:29;102164.09;;;28.24;91.32
9421;BME280;4749;51.398;5.466;2023-08-21T11:02:27;102173.22;;;28.40;84.55
9421;BME280;4749;51.398;5.466;2023-08-21T11:04:56;102177.09;;;28.17;84.94
9421;BME280;4749;51.398;5.466;2023-08-21T11:07:25;102174.09;;;28.04;85.34
9421;BME280;4749;51.398;5.466;2023-08-21T11:09:52;102168.97;;;28.17;84.85
9421;BME280;4749;51.398;5.466;2023-08-21T11:12:22;102173.13;;;28.42;83.86
9421;BME280;4749;51.398;5.466;2023-08-21T11:14:50;102169.63;;;28.57;82.80
9421;BME280;4749;51.398;5.466;2023-08-21T11:17:17;102162.56;;;28.72;82.63
9421;BME280;4749;51.398;5.466;2023-08-21T11:19:47;102149.91;;;28.90;82.87
9421;BME280;4749;51.398;5.466;2023-08-21T11:22:16;102154.69;;;29.02;82.07
9421;BME280;4749;51.398;5.466;2023-08-21T11:24:45;102151.31;;;28.97;82.50
9421;BME280;4749;51.398;5.466;2023-08-21T11:27:15;102147.66;;;28.80;83.12
9421;BME280;4749;51.398;5.466;2023-08-21T11:29:49;102153.25;;;28.77;84.25
9421;BME280;4749;51.398;5.466;2023-08-21T11:32:20;102147.19;;;28.90;85.31
9421;BME280;4749;51.398;5.466;2023-08-21T11:37:19;102135.84;;;29.32;83.91
9421;BME280;4749;51.398;5.466;2023-08-21T11:39:56;102141.66;;;29.57;81.72
9421;BME280;4749;51.398;5.466;2023-08-21T11:42:32;102147.09;;;29.73;80.14
9421;BME280;4749;51.398;5.466;2023-08-21T11:45:01;102148.28;;;29.83;79.60
9421;BME280;4749;51.398;5.466;2023-08-21T11:47:34;102149.78;;;29.89;78.92
9421;BME280;4749;51.398;5.466;2023-08-21T11:50:07;102138.75;;;29.92;77.87
9421;BME280;4749;51.398;5.466;2023-08-21T11:52:37;102136.84;;;29.94;77.46
9421;BME280;4749;51.398;5.466;2023-08-21T11:55:09;102137.28;;;30.02;77.01
9421;BME280;4749;51.398;5.466;2023-08-21T11:57:50;102138.06;;;30.04;74.95
9421;BME280;4749;51.398;5.466;2023-08-21T12:00:19;102138.09;;;29.73;74.48
9421;BME280;4749;51.398;5.466;2023-08-21T12:03:00;102136.00;;;29.62;74.31
9421;BME280;4749;51.398;5.466;2023-08-21T12:05:29;102138.06;;;29.88;73.47
9421;BME280;4749;51.398;5.466;2023-08-21T12:07:57;102133.41;;;30.06;72.98
9421;BME280;4749;51.398;5.466;2023-08-21T12:10:29;102134.53;;;30.18;72.60
9421;BME280;4749;51.398;5.466;2023-08-21T12:12:56;102139.50;;;30.25;72.14
9421;BME280;4749;51.398;5.466;2023-08-21T12:15:23;102136.34;;;30.33;71.60
9421;BME280;4749;51.398;5.466;2023-08-21T12:17:50;102134.72;;;30.45;71.29
9421;BME280;4749;51.398;5.466;2023-08-21T12:20:18;102134.94;;;30.56;70.85
9421;BME280;4749;51.398;5.466;2023-08-21T12:22:45;102135.53;;;30.61;71.04
9421;BME280;4749;51.398;5.466;2023-08-21T12:25:13;102132.97;;;30.74;70.18
9421;BME280;4749;51.398;5.466;2023-08-21T12:27:40;102129.97;;;30.78;70.02
9421;BME280;4749;51.398;5.466;2023-08-21T12:30:08;102129.78;;;30.81;69.70
9421;BME280;4749;51.398;5.466;2023-08-21T12:32:35;102132.59;;;30.80;69.21
9421;BME280;4749;51.398;5.466;2023-08-21T12:35:03;102136.06;;;30.82;68.56
9421;BME280;4749;51.398;5.466;2023-08-21T12:37:31;102130.03;;;30.77;68.12
9421;BME280;4749;51.398;5.466;2023-08-21T12:39:58;102130.16;;;30.75;67.73
9421;BME280;4749;51.398;5.466;2023-08-21T12:42:26;102121.91;;;30.77;67.47
9421;BME280;4749;51.398;5.466;2023-08-21T12:44:53;102119.88;;;30.80;67.16
9421;BME280;4749;51.398;5.466;2023-08-21T12:47:20;102126.69;;;30.88;67.30
9421;BME280;4749;51.398;5.466;2023-08-21T12:49:47;102125.22;;;30.96;66.80
9421;BME280;4749;51.398;5.466;2023-08-21T12:52:14;102118.94;;;30.96;67.06
9421;BME280;4749;51.398;5.466;2023-08-21T12:54:42;102113.41;;;30.97;67.34
9421;BME280;4749;51.398;5.466;2023-08-21T12:57:09;102119.38;;;31.02;66.13
9421;BME280;4749;51.398;5.466;2023-08-21T12:59:38;102116.88;;;30.99;64.91
9421;BME280;4749;51.398;5.466;2023-08-21T13:02:05;102118.34;;;30.91;64.27
9421;BME280;4749;51.398;5.466;2023-08-21T13:04:34;102116.00;;;30.85;64.07
9421;BME280;4749;51.398;5.466;2023-08-21T13:07:02;102120.56;;;30.84;63.30
9421;BME280;4749;51.398;5.466;2023-08-21T13:09:30;102107.09;;;30.82;63.45
9421;BME280;4749;51.398;5.466;2023-08-21T13:11:57;102106.97;;;30.84;63.94
9421;BME280;4749;51.398;5.466;2023-08-21T13:14:25;102109.03;;;30.80;63.60
9421;BME280;4749;51.398;5.466;2023-08-21T13:16:52;102105.63;;;30.77;62.84
9421;BME280;4749;51.398;5.466;2023-08-21T13:19:19;102109.69;;;30.84;62.68
9421;BME280;4749;51.398;5.466;2023-08-21T13:21:46;102107.28;;;30.94;62.74
9421;BME280;4749;51.398;5.466;2023-08-21T13:24:13;102107.88;;;30.99;62.96
9421;BME280;4749;51.398;5.466;2023-08-21T13:26:40;102114.66;;;31.06;63.22